Time;durP1;ratioP1;P1;durP2;ratioP2;P2;SDS_P1;SDS_P2;PMS_P1;PMS_P2;Temp;Humidity;BMP_temperature;BMP_pressure;BME280_temperature;BME280_humidity;BME280_pressure;Samples;Min_cycle;Max_cycle;Signal;HPM_P1;HPM_P2
2024/02/29 00:00:06;;;;;;;29.80;16.50;;;;;;;7.86;100.00;101274.47;105553;1258;98643;-76
2024/02/29 00:03:12;;;;;;;26.00;16.50;;;;;;;7.83;100.00;101276.14;105663;1259;98629;-76
2024/02/29 00:05:58;;;;;;;27.20;16.20;;;;;;;7.81;100.00;101276.12;105863;1257;97913;-76
2024/02/29 00:08:44;;;;;;;26.20;15.50;;;;;;;7.79;100.00;101279.04;105586;1257;101372;-75
2024/02/29 00:11:30;;;;;;;28.30;16.50;;;;;;;7.76;100.00;101274.51;105620;1258;100037;-77
2024/02/29 00:14:15;;;;;;;27.70;16.10;;;;;;;7.75;100.00;101270.40;105612;1253;97943;-76
2024/02/29 00:17:01;;;;;;;27.40;16.80;;;;;;;7.74;100.00;101271.16;105583;1256;97966;-77
2024/02/29 00:19:47;;;;;;;29.20;16.60;;;;;;;7.74;100.00;101272.39;105581;1257;97966;-76
2024/02/29 00:22:32;;;;;;;25.20;16.20;;;;;;;7.72;100.00;101272.92;105453;1259;101319;-76
2024/02/29 00:25:18;;;;;;;26.20;16.40;;;;;;;7.71;100.00;101274.29;105568;1258;100455;-77
2024/02/29 00:28:03;;;;;;;26.30;16.10;;;;;;;7.71;100.00;101276.45;105597;1257;97919;-75
2024/02/29 00:30:50;;;;;;;24.80;15.30;;;;;;;7.69;100.00;101278.70;105599;1257;98639;-76
2024/02/29 00:33:35;;;;;;;24.60;14.90;;;;;;;7.69;100.00;101285.17;105528;1253;98450;-76
2024/02/29 00:36:21;;;;;;;25.90;14.80;;;;;;;7.70;100.00;101283.86;105581;1257;101377;-77
2024/02/29 00:39:09;;;;;;;23.10;14.60;;;;;;;7.70;100.00;101283.98;105654;1257;99073;-77
2024/02/29 00:41:55;;;;;;;28.10;15.20;;;;;;;7.69;100.00;101287.45;105643;1257;99426;-76
2024/02/29 00:44:40;;;;;;;23.00;14.30;;;;;;;7.68;100.00;101290.63;105540;1257;97957;-76
2024/02/29 00:47:26;;;;;;;20.00;13.30;;;;;;;7.69;100.00;101294.58;105500;1253;98645;-76
2024/02/29 00:50:11;;;;;;;24.90;14.30;;;;;;;7.71;100.00;101293.66;105567;1253;101334;-76
2024/02/29 00:52:57;;;;;;;23.30;14.60;;;;;;;7.72;100.00;101296.23;105645;1254;108885;-77
2024/02/29 00:55:43;;;;;;;24.30;14.10;;;;;;;7.72;100.00;101301.04;105681;1257;97982;-76
2024/02/29 00:58:29;;;;;;;22.00;13.60;;;;;;;7.71;100.00;101298.10;105543;1257;97936;-76
2024/02/29 01:01:14;;;;;;;21.50;13.20;;;;;;;7.71;100.00;101298.31;105569;1253;97964;-77
2024/02/29 01:04:00;;;;;;;22.20;14.90;;;;;;;7.70;100.00;101297.67;105553;1261;103126;-76
2024/02/29 01:06:45;;;;;;;23.90;15.00;;;;;;;7.70;100.00;101299.45;105707;1257;99043;-77
2024/02/29 01:09:31;;;;;;;24.30;14.80;;;;;;;7.71;100.00;101300.96;105618;1259;97972;-76
2024/02/29 01:12:16;;;;;;;23.50;14.20;;;;;;;7.71;100.00;101295.77;105618;1257;98004;-77
2024/02/29 01:15:02;;;;;;;26.00;15.30;;;;;;;7.72;100.00;101298.70;105627;1257;99179;-76
2024/02/29 01:17:50;;;;;;;28.80;16.30;;;;;;;7.73;100.00;101301.78;105559;1257;101340;-76
2024/02/29 01:20:35;;;;;;;22.00;14.20;;;;;;;7.74;100.00;101304.25;105664;1257;99534;-76
2024/02/29 01:23:21;;;;;;;19.70;13.90;;;;;;;7.73;100.00;101301.09;105610;1253;98081;-76
2024/02/29 01:26:06;;;;;;;24.80;15.40;;;;;;;7.73;100.00;101300.39;105584;1253;99202;-77
2024/02/29 01:28:52;;;;;;;24.50;14.60;;;;;;;7.73;100.00;101304.31;105623;1253;98379;-77
2024/02/29 01:31:37;;;;;;;26.10;14.00;;;;;;;7.74;100.00;101298.91;105577;1257;101449;-77
2024/02/29 01:34:23;;;;;;;27.20;16.00;;;;;;;7.74;100.00;101298.16;105581;1253;100395;-76
2024/02/29 01:37:08;;;;;;;23.80;15.70;;;;;;;7.74;100.00;101293.36;105600;1257;97909;-76
2024/02/29 01:39:54;;;;;;;24.40;14.70;;;;;;;7.75;100.00;101289.40;105503;1253;98454;-76
2024/02/29 01:42:41;;;;;;;27.90;16.10;;;;;;;7.75;100.00;101290.23;105555;1258;98383;-77
2024/02/29 01:45:27;;;;;;;28.40;16.80;;;;;;;7.75;100.00;101286.99;105608;1253;101978;-76
2024/02/29 01:48:14;;;;;;;26.00;17.40;;;;;;;7.75;100.00;101287.20;105485;1253;99094;-75
2024/02/29 01:50:59;;;;;;;30.80;18.10;;;;;;;7.75;100.00;101287.38;105482;1257;97967;-76
2024/02/29 01:53:46;;;;;;;27.50;16.00;;;;;;;7.75;100.00;101286.14;105479;1253;162943;-77
2024/02/29 01:56:32;;;;;;;25.30;16.70;;;;;;;7.74;100.00;101282.83;105695;1253;98408;-76
2024/02/29 01:59:18;;;;;;;24.90;16.30;;;;;;;7.74;100.00;101283.25;105432;1253;101319;-76
2024/02/29 02:02:05;;;;;;;28.60;17.00;;;;;;;7.73;100.00;101281.41;105438;1254;99329;-76
2024/02/29 02:04:51;;;;;;;26.20;15.80;;;;;;;7.68;100.00;101278.56;105466;1259;99324;-77
2024/02/29 02:07:36;;;;;;;25.60;16.40;;;;;;;7.61;100.00;101276.52;105668;1257;99321;-77
2024/02/29 02:10:22;;;;;;;23.50;14.50;;;;;;;7.55;100.00;101274.33;105525;1253;99671;-77
2024/02/29 02:13:08;;;;;;;21.60;13.50;;;;;;;7.50;100.00;101280.83;105509;1253;102706;-76
2024/02/29 02:15:54;;;;;;;22.40;13.60;;;;;;;7.47;100.00;101281.17;105652;1254;100407;-77
2024/02/29 02:18:39;;;;;;;23.60;13.60;;;;;;;7.44;100.00;101278.83;105501;1259;98674;-77
2024/02/29 02:21:24;;;;;;;23.40;13.20;;;;;;;7.38;100.00;101274.55;105706;1253;97983;-77
2024/02/29 02:24:10;;;;;;;21.30;12.60;;;;;;;7.34;100.00;101271.63;105576;1257;97976;-77
2024/02/29 02:26:55;;;;;;;20.40;12.50;;;;;;;7.31;100.00;101269.57;105544;1257;102185;-76
2024/02/29 02:29:41;;;;;;;21.60;13.50;;;;;;;7.29;100.00;101269.05;105738;1257;100895;-75
2024/02/29 02:32:26;;;;;;;19.50;12.70;;;;;;;7.28;100.00;101265.29;105546;1257;98959;-76
2024/02/29 02:35:12;;;;;;;20.20;13.30;;;;;;;7.23;100.00;101263.29;105655;1253;97937;-75
2024/02/29 02:37:58;;;;;;;22.50;13.20;;;;;;;7.19;100.00;101259.61;105768;1253;98584;-75
2024/02/29 02:40:43;;;;;;;19.60;12.90;;;;;;;7.15;100.00;101259.42;105716;1259;102177;-77
2024/02/29 02:43:29;;;;;;;23.00;14.10;;;;;;;7.12;100.00;101263.84;105688;1254;99305;-76
2024/02/29 02:46:15;;;;;;;23.70;13.80;;;;;;;7.10;100.00;101265.65;105559;1253;99212;-75
2024/02/29 02:49:00;;;;;;;21.60;13.10;;;;;;;7.09;100.00;101262.55;105666;1253;99239;-76
2024/02/29 02:51:46;;;;;;;21.50;12.50;;;;;;;7.06;100.00;101261.05;105560;1253;98481;-75
2024/02/29 02:54:32;;;;;;;21.70;12.90;;;;;;;7.03;100.00;101258.28;105538;1254;102363;-75
2024/02/29 02:57:18;;;;;;;24.10;14.80;;;;;;;7.02;100.00;101258.99;105461;1260;99242;-75
2024/02/29 03:00:10;;;;;;;21.10;13.10;;;;;;;6.97;100.00;101256.74;105534;1257;99343;-74
2024/02/29 03:02:55;;;;;;;26.60;14.90;;;;;;;6.92;100.00;101257.43;105712;1257;97968;-77
2024/02/29 03:05:41;;;;;;;23.10;13.60;;;;;;;6.87;100.00;101257.05;105560;1256;98463;-77
2024/02/29 03:08:26;;;;;;;28.40;14.60;;;;;;;6.83;100.00;101258.70;105455;1257;102614;-76
2024/02/29 03:11:12;;;;;;;23.20;14.90;;;;;;;6.80;100.00;101266.75;105657;1254;100336;-77
2024/02/29 03:13:57;;;;;;;26.60;15.40;;;;;;;6.77;100.00;101266.89;105478;1259;98007;-76
2024/02/29 03:16:43;;;;;;;23.80;14.10;;;;;;;6.74;100.00;101271.58;105556;1258;97868;-77
2024/02/29 03:19:29;;;;;;;25.90;15.00;;;;;;;6.67;100.00;101272.09;105582;1253;97979;-75
2024/02/29 03:22:14;;;;;;;26.90;14.10;;;;;;;6.56;100.00;101271.41;105588;1258;101346;-76
2024/02/29 03:25:00;;;;;;;28.50;15.10;;;;;;;6.47;100.00;101282.20;105383;1258;101031;-76
2024/02/29 03:27:46;;;;;;;32.80;16.30;;;;;;;6.44;100.00;101287.24;105550;1258;97979;-76
2024/02/29 03:30:31;;;;;;;29.80;15.60;;;;;;;6.44;100.00;101288.02;105526;1257;97969;-75
2024/02/29 03:33:17;;;;;;;26.50;15.60;;;;;;;6.42;100.00;101290.48;105562;1258;98504;-75
2024/02/29 03:36:03;;;;;;;32.20;15.60;;;;;;;6.41;100.00;101286.00;105542;1257;102898;-77
2024/02/29 03:38:48;;;;;;;28.60;15.30;;;;;;;6.42;100.00;101282.32;105567;1259;100401;-75
2024/02/29 03:41:33;;;;;;;31.00;15.50;;;;;;;6.46;100.00;101285.55;105512;1253;98009;-75
2024/02/29 03:44:19;;;;;;;34.90;16.30;;;;;;;6.49;100.00;101284.87;105500;1254;97892;-75
2024/02/29 03:47:05;;;;;;;28.30;15.90;;;;;;;6.49;100.00;101287.63;105731;1254;98472;-76
2024/02/29 03:49:51;;;;;;;30.30;15.80;;;;;;;6.49;100.00;101291.41;105642;1253;101324;-77
2024/02/29 03:52:36;;;;;;;32.70;16.20;;;;;;;6.51;100.00;101286.39;105526;1254;100851;-76
2024/02/29 03:55:22;;;;;;;31.30;16.60;;;;;;;6.54;100.00;101282.41;105605;1256;98744;-76
2024/02/29 03:58:08;;;;;;;31.10;15.60;;;;;;;6.56;100.00;101279.77;105569;1253;98523;-76
2024/02/29 04:00:53;;;;;;;30.40;16.60;;;;;;;6.56;100.00;101274.98;105545;1254;98418;-76
2024/02/29 04:03:40;;;;;;;34.90;16.60;;;;;;;6.55;100.00;101270.80;105611;1256;102677;-76
2024/02/29 04:06:26;;;;;;;28.40;15.50;;;;;;;6.52;100.00;101270.73;105565;1253;99853;-77
2024/02/29 04:09:12;;;;;;;27.00;16.10;;;;;;;6.49;100.00;101270.16;105483;1254;99132;-76
2024/02/29 04:11:57;;;;;;;31.60;16.60;;;;;;;6.46;100.00;101269.33;105745;1256;97995;-77
2024/02/29 04:14:43;;;;;;;28.00;16.20;;;;;;;6.46;100.00;101268.83;105612;1253;98466;-77
2024/02/29 04:17:32;;;;;;;30.30;16.00;;;;;;;6.46;100.00;101272.23;105607;1258;101343;-77
2024/02/29 04:20:17;;;;;;;29.50;16.30;;;;;;;6.45;100.00;101273.38;105569;1259;99146;-76
2024/02/29 04:23:03;;;;;;;31.70;16.70;;;;;;;6.44;100.00;101278.19;105496;1257;98049;-76
2024/02/29 04:25:49;;;;;;;30.50;16.00;;;;;;;6.43;100.00;101278.98;105577;1253;97941;-76
2024/02/29 04:28:34;;;;;;;30.30;15.50;;;;;;;6.44;100.00;101280.73;105472;1259;98419;-76
2024/02/29 04:31:20;;;;;;;35.10;16.40;;;;;;;6.46;100.00;101282.48;105554;1259;102164;-75
2024/02/29 04:34:06;;;;;;;33.80;17.40;;;;;;;6.49;100.00;101284.48;105662;1254;99651;-76
2024/02/29 04:36:51;;;;;;;32.60;17.00;;;;;;;6.49;100.00;101282.17;105620;1253;98989;-76
2024/02/29 04:39:37;;;;;;;29.70;16.10;;;;;;;6.51;100.00;101284.63;105444;1259;98469;-76
2024/02/29 04:42:22;;;;;;;33.50;15.50;;;;;;;6.53;100.00;101291.19;105523;1254;98457;-75
2024/02/29 04:45:08;;;;;;;31.80;16.20;;;;;;;6.53;100.00;101294.53;105646;1253;101427;-76
2024/02/29 04:47:54;;;;;;;30.30;16.50;;;;;;;6.53;100.00;101298.12;105522;1259;100370;-78
2024/02/29 04:50:40;;;;;;;31.60;16.30;;;;;;;6.53;100.00;101298.61;105543;1254;99141;-78
2024/02/29 04:53:25;;;;;;;29.90;16.30;;;;;;;6.54;100.00;101299.14;105551;1253;97951;-77
2024/02/29 04:56:11;;;;;;;30.60;15.90;;;;;;;6.55;100.00;101298.84;105596;1253;99563;-77
2024/02/29 04:58:56;;;;;;;30.60;16.10;;;;;;;6.58;100.00;101293.56;105618;1253;101319;-76
2024/02/29 05:01:43;;;;;;;34.40;16.60;;;;;;;6.59;100.00;101291.83;105718;1254;99173;-77
2024/02/29 05:04:29;;;;;;;35.60;15.80;;;;;;;6.59;100.00;101293.95;105658;1259;99158;-77
2024/02/29 05:07:14;;;;;;;30.20;15.30;;;;;;;6.56;100.00;101287.36;105588;1259;97902;-76
2024/02/29 05:10:00;;;;;;;33.80;16.10;;;;;;;6.54;100.00;101287.75;105552;1253;98338;-77
2024/02/29 05:12:50;;;;;;;32.20;16.20;;;;;;;6.54;100.00;101287.92;105561;1260;101339;-78
2024/02/29 05:15:35;;;;;;;30.90;16.00;;;;;;;6.53;100.00;101289.92;105654;1258;100166;-77
2024/02/29 05:18:21;;;;;;;31.20;16.20;;;;;;;6.53;100.00;101289.10;105547;1259;97760;-77
2024/02/29 05:21:07;;;;;;;31.90;15.70;;;;;;;6.53;100.00;101290.67;105707;1253;98438;-77
2024/02/29 05:23:52;;;;;;;32.90;15.70;;;;;;;6.52;100.00;101287.05;105596;1254;98469;-77
2024/02/29 05:26:38;;;;;;;30.20;15.90;;;;;;;6.50;100.00;101291.13;105532;1259;101323;-76
2024/02/29 05:29:23;;;;;;;31.00;15.70;;;;;;;6.50;100.00;101294.19;105488;1265;99965;-77
2024/02/29 05:32:09;;;;;;;32.80;17.10;;;;;;;6.52;100.00;101299.80;105647;1259;97966;-77
2024/02/29 05:34:55;;;;;;;30.40;16.20;;;;;;;6.55;100.00;101301.45;105552;1259;98091;-77
2024/02/29 05:37:40;;;;;;;32.40;16.00;;;;;;;6.57;100.00;101301.48;105511;1254;99088;-77
2024/02/29 05:40:29;;;;;;;31.10;15.60;;;;;;;6.57;100.00;101302.66;105655;1254;101326;-77
2024/02/29 05:43:14;;;;;;;36.60;19.10;;;;;;;6.59;100.00;101300.70;105655;1253;99066;-77
2024/02/29 05:46:00;;;;;;;40.40;22.60;;;;;;;6.63;100.00;101300.41;105577;1273;99118;-77
2024/02/29 05:48:46;;;;;;;41.00;22.80;;;;;;;6.66;100.00;101301.68;105427;1259;97932;-77
2024/02/29 05:51:31;;;;;;;66.50;39.80;;;;;;;6.68;100.00;101302.15;105539;1258;98463;-77
2024/02/29 05:54:17;;;;;;;44.40;22.80;;;;;;;6.70;100.00;101309.43;105569;1253;101977;-77
2024/02/29 05:57:03;;;;;;;42.70;20.70;;;;;;;6.71;100.00;101305.23;105556;1254;99066;-76
2024/02/29 05:59:49;;;;;;;36.20;18.90;;;;;;;6.73;100.00;101300.42;105485;1254;98008;-76
2024/02/29 06:02:34;;;;;;;40.00;20.80;;;;;;;6.75;100.00;101302.71;105514;1259;98054;-77
2024/02/29 06:05:21;;;;;;;51.20;31.00;;;;;;;6.78;100.00;101303.58;105538;1259;99125;-76
2024/02/29 06:08:06;;;;;;;38.20;22.20;;;;;;;6.79;100.00;101304.50;105587;1254;102255;-77
2024/02/29 06:10:51;;;;;;;35.60;20.60;;;;;;;6.80;100.00;101303.71;105660;1253;99989;-77
2024/02/29 06:13:39;;;;;;;34.80;19.70;;;;;;;6.81;100.00;101309.60;105677;1259;99311;-76
2024/02/29 06:16:26;;;;;;;44.40;23.90;;;;;;;6.82;100.00;101309.67;105619;1257;98049;-75
2024/02/29 06:19:11;;;;;;;60.90;37.10;;;;;;;6.84;100.00;101307.17;105544;1254;98431;-76
2024/02/29 06:21:57;;;;;;;39.00;21.30;;;;;;;6.86;100.00;101305.92;105620;1259;101728;-75
2024/02/29 06:24:43;;;;;;;34.60;19.90;;;;;;;6.88;100.00;101305.19;105479;1259;100301;-76
2024/02/29 06:27:28;;;;;;;38.90;23.20;;;;;;;6.91;100.00;101308.30;105500;1256;97861;-76
2024/02/29 06:30:14;;;;;;;29.00;15.90;;;;;;;6.91;100.00;101304.23;105457;1258;98314;-77
2024/02/29 06:33:00;;;;;;;27.70;14.90;;;;;;;6.91;100.00;101306.00;105464;1253;98609;-75
2024/02/29 06:35:46;;;;;;;27.70;13.50;;;;;;;6.90;100.00;101308.23;105304;1259;102643;-76
2024/02/29 06:38:32;;;;;;;27.30;16.00;;;;;;;6.91;100.00;101308.46;105457;1254;100261;-77
2024/02/29 06:41:18;;;;;;;30.10;15.00;;;;;;;6.89;100.00;101308.62;105535;1259;98101;-76
2024/02/29 06:44:06;;;;;;;29.60;15.80;;;;;;;6.88;100.00;101311.23;105455;1259;97949;-76
2024/02/29 06:46:51;;;;;;;34.00;17.20;;;;;;;6.88;100.00;101311.26;106631;1253;98494;-76
2024/02/29 06:49:37;;;;;;;31.20;18.20;;;;;;;6.88;100.00;101311.48;105504;1253;102751;-76
2024/02/29 06:52:23;;;;;;;36.60;19.70;;;;;;;6.86;100.00;101312.64;105456;1258;100927;-76
2024/02/29 06:55:08;;;;;;;42.40;23.00;;;;;;;6.88;100.00;101315.18;105459;1257;98984;-77
2024/02/29 06:57:54;;;;;;;45.30;23.70;;;;;;;6.89;100.00;101317.36;105535;1259;97948;-75
2024/02/29 07:00:40;;;;;;;37.90;20.20;;;;;;;6.91;100.00;101318.63;105503;1254;98644;-75
2024/02/29 07:03:26;;;;;;;34.80;18.70;;;;;;;6.91;100.00;101317.02;105492;1259;102600;-76
2024/02/29 07:06:12;;;;;;;24.90;15.00;;;;;;;6.89;100.00;101317.90;105597;1259;99229;-76
2024/02/29 07:08:57;;;;;;;28.00;14.00;;;;;;;6.88;100.00;101318.01;105438;1257;98942;-76
2024/02/29 07:11:45;;;;;;;23.70;12.90;;;;;;;6.88;100.00;101317.84;105530;1259;97956;-75
2024/02/29 07:14:31;;;;;;;25.40;14.40;;;;;;;6.88;100.00;101319.58;105747;1255;98612;-78
2024/02/29 07:17:16;;;;;;;24.20;12.80;;;;;;;6.91;100.00;101320.55;105612;1255;101354;-75
2024/02/29 07:20:04;;;;;;;63.20;34.60;;;;;;;6.94;100.00;101316.02;105581;1259;99057;-76
2024/02/29 07:22:51;;;;;;;46.30;27.00;;;;;;;6.98;100.00;101320.23;105477;1253;99244;-77
2024/02/29 07:25:37;;;;;;;34.40;19.90;;;;;;;7.04;100.00;101322.17;105439;1260;97957;-76
2024/02/29 07:28:22;;;;;;;23.80;13.90;;;;;;;7.07;100.00;101320.10;105405;1253;98348;-77
2024/02/29 07:31:09;;;;;;;24.60;15.40;;;;;;;7.10;100.00;101318.76;106046;1253;101327;-82
2024/02/29 07:33:55;;;;;;;25.00;15.60;;;;;;;7.13;100.00;101320.56;107037;1262;100337;-84
2024/02/29 07:36:41;;;;;;;20.50;12.60;;;;;;;7.17;100.00;101316.09;107190;1254;97989;-84
2024/02/29 07:39:27;;;;;;;23.90;14.50;;;;;;;7.22;100.00;101312.99;106806;1260;97948;-77
2024/02/29 07:42:12;;;;;;;24.80;15.10;;;;;;;7.26;100.00;101315.54;105540;1259;98493;-76
2024/02/29 07:44:58;;;;;;;20.00;12.80;;;;;;;7.32;100.00;101319.11;105570;1260;102081;-76
2024/02/29 07:47:43;;;;;;;21.60;13.90;;;;;;;7.35;100.00;101317.91;105542;1259;99078;-75
2024/02/29 07:50:31;;;;;;;19.10;11.90;;;;;;;7.38;100.00;101320.39;105832;1253;97927;-86
2024/02/29 07:53:17;;;;;;;21.50;13.10;;;;;;;7.41;100.00;101321.00;106272;1260;97968;-85
2024/02/29 07:56:04;;;;;;;19.20;12.10;;;;;;;7.44;100.00;101322.48;106265;1254;98363;-86
2024/02/29 07:58:50;;;;;;;22.50;13.70;;;;;;;7.47;100.00;101325.08;105728;1259;101433;-78
2024/02/29 08:01:35;;;;;;;24.60;17.50;;;;;;;7.49;100.00;101325.96;105962;1254;100046;-77
2024/02/29 08:04:21;;;;;;;19.60;13.40;;;;;;;7.51;100.00;101326.30;105926;1254;98515;-76
2024/02/29 08:07:12;;;;;;;22.00;12.50;;;;;;;7.54;100.00;101326.16;105669;1259;97879;-77
2024/02/29 08:09:59;;;;;;;19.00;11.30;;;;;;;7.58;100.00;101326.45;106125;1254;97859;-76
2024/02/29 08:12:45;;;;;;;24.20;14.30;;;;;;;7.62;100.00;101326.57;105491;1253;101348;-76
2024/02/29 08:15:30;;;;;;;21.40;13.80;;;;;;;7.66;100.00;101333.78;105541;1259;100321;-76
2024/02/29 08:18:15;;;;;;;21.40;12.90;;;;;;;7.70;100.00;101333.25;105497;1254;98084;-77
2024/02/29 08:21:03;;;;;;;25.70;18.00;;;;;;;7.71;100.00;101329.02;106405;1253;98438;-76
2024/02/29 08:23:50;;;;;;;29.10;21.70;;;;;;;7.74;100.00;101326.09;105692;1263;97820;-78
2024/02/29 08:26:36;;;;;;;23.90;15.00;;;;;;;7.77;100.00;101325.48;105747;1258;102932;-78
2024/02/29 08:29:21;;;;;;;24.50;15.80;;;;;;;7.79;100.00;101320.20;105732;1260;99059;-78
2024/02/29 08:32:07;;;;;;;22.30;14.60;;;;;;;7.84;100.00;101321.02;105651;1253;99193;-76
2024/02/29 08:34:54;;;;;;;27.30;18.10;;;;;;;7.88;100.00;101315.70;105671;1259;97879;-77
2024/02/29 08:37:44;;;;;;;23.30;13.90;;;;;;;7.90;100.00;101317.08;105645;1253;99148;-77
2024/02/29 08:40:30;;;;;;;21.20;12.60;;;;;;;7.91;100.00;101316.23;105698;1254;101420;-76
2024/02/29 08:43:19;;;;;;;21.10;14.20;;;;;;;7.92;100.00;101312.36;105880;1253;99211;-77
2024/02/29 08:46:04;;;;;;;26.20;17.70;;;;;;;7.96;100.00;101311.64;105649;1261;98194;-77
2024/02/29 08:48:50;;;;;;;25.20;16.80;;;;;;;7.99;100.00;101313.14;106372;1259;97966;-76
2024/02/29 08:51:36;;;;;;;24.70;16.10;;;;;;;8.00;100.00;101315.13;105618;1254;97960;-77
2024/02/29 08:54:21;;;;;;;28.70;16.50;;;;;;;8.02;100.00;101316.56;105740;1259;101327;-86
2024/02/29 08:57:07;;;;;;;25.40;16.00;;;;;;;8.03;100.00;101316.14;106365;1255;100633;-84
2024/02/29 08:59:55;;;;;;;26.20;15.90;;;;;;;8.02;100.00;101313.67;106170;1254;98208;-76
2024/02/29 09:02:40;;;;;;;29.00;18.10;;;;;;;8.04;100.00;101311.38;106117;1259;97976;-76
2024/02/29 09:05:26;;;;;;;31.20;20.20;;;;;;;8.07;100.00;101311.11;105669;1259;98372;-77
2024/02/29 09:08:12;;;;;;;28.70;17.60;;;;;;;8.09;100.00;101309.64;105444;1259;101434;-77
2024/02/29 09:10:57;;;;;;;26.20;16.50;;;;;;;8.13;100.00;101305.98;105617;1254;99706;-77
2024/02/29 09:13:43;;;;;;;24.20;15.00;;;;;;;8.19;100.00;101307.02;105557;1257;97868;-79
2024/02/29 09:16:28;;;;;;;21.60;14.10;;;;;;;8.23;100.00;101308.17;105683;1255;98066;-78
2024/02/29 09:19:14;;;;;;;25.20;16.20;;;;;;;8.24;100.00;101303.64;105998;1259;99358;-76
2024/02/29 09:21:59;;;;;;;23.10;14.10;;;;;;;8.24;100.00;101303.11;105648;1259;101339;-77
2024/02/29 09:24:45;;;;;;;20.90;14.60;;;;;;;8.25;100.00;101305.53;105694;1260;99821;-82
2024/02/29 09:27:31;;;;;;;24.10;15.00;;;;;;;8.28;100.00;101308.08;106218;1259;98598;-80
2024/02/29 09:30:17;;;;;;;25.10;15.90;;;;;;;8.31;100.00;101305.46;106638;1259;98576;-77
2024/02/29 09:33:03;;;;;;;28.90;20.00;;;;;;;8.33;100.00;101305.25;105498;1254;99258;-76
2024/02/29 09:35:55;;;;;;;26.90;17.30;;;;;;;8.37;100.00;101298.17;105661;1258;101356;-77
2024/02/29 09:38:41;;;;;;;28.90;18.90;;;;;;;8.42;100.00;101298.45;105727;1260;99260;-82
2024/02/29 09:41:27;;;;;;;30.20;18.60;;;;;;;8.44;100.00;101297.86;106501;1260;98207;-77
2024/02/29 09:44:13;;;;;;;27.70;16.10;;;;;;;8.46;100.00;101304.22;105839;1259;98059;-78
2024/02/29 09:46:59;;;;;;;29.50;18.30;;;;;;;8.49;100.00;101309.05;105700;1267;98491;-77
2024/02/29 09:49:45;;;;;;;28.30;17.80;;;;;;;8.54;100.00;101312.32;105596;1258;102452;-76
2024/02/29 09:52:36;;;;;;;37.30;20.30;;;;;;;8.58;100.00;101311.51;105624;1260;99114;-78
2024/02/29 09:55:23;;;;;;;;;;;;;;;8.62;100.00;101312.27;106030;1259;98463;-80
2024/02/29 09:58:08;;;;;;;41.70;24.20;;;;;;;8.62;100.00;101307.90;105893;1258;98401;-77
2024/02/29 10:00:53;;;;;;;31.40;19.40;;;;;;;8.64;100.00;101302.27;105719;1259;98488;-77
2024/02/29 10:03:40;;;;;;;37.80;23.10;;;;;;;8.66;100.00;101303.19;105737;1254;101609;-80
2024/02/29 10:06:26;;;;;;;34.10;21.60;;;;;;;8.69;100.00;101303.08;105785;1258;99053;-77
2024/02/29 10:09:12;;;;;;;49.00;34.30;;;;;;;8.71;100.00;101301.29;105616;1259;97995;-79
2024/02/29 10:11:59;;;;;;;46.80;30.00;;;;;;;8.73;100.00;101294.48;106635;1254;97896;-86
2024/02/29 10:14:47;;;;;;;47.20;28.40;;;;;;;8.72;100.00;101292.27;106791;1255;97873;-87
2024/02/29 10:17:33;;;;;;;38.10;22.30;;;;;;;8.73;100.00;101290.61;106743;1254;101447;-82
2024/02/29 10:20:20;;;;;;;33.80;20.80;;;;;;;8.73;100.00;101284.70;106512;1254;99069;-78
2024/02/29 10:23:11;;;;;;;38.10;23.20;;;;;;;8.73;100.00;101280.59;106150;1255;98417;-87
2024/02/29 10:25:57;;;;;;;36.40;23.50;;;;;;;8.75;100.00;101278.32;106288;1254;97902;-86
2024/02/29 10:28:43;;;;;;;34.20;22.30;;;;;;;8.77;100.00;101281.11;106394;1261;98728;-79
2024/02/29 10:31:29;;;;;;;35.00;22.10;;;;;;;8.80;100.00;101278.86;106195;1254;101329;-84
2024/02/29 10:34:18;;;;;;;37.70;22.40;;;;;;;8.82;100.00;101277.34;106566;1258;100570;-76
2024/02/29 10:37:04;;;;;;;39.90;22.80;;;;;;;8.84;100.00;101273.45;105670;1258;98123;-77
2024/02/29 10:39:50;;;;;;;37.10;21.80;;;;;;;8.84;100.00;101274.62;105672;1259;97976;-79
2024/02/29 10:42:39;;;;;;;46.70;24.80;;;;;;;8.84;100.00;101272.37;105816;1255;98630;-77
2024/02/29 10:45:25;;;;;;;38.00;23.60;;;;;;;8.83;100.00;101268.70;105642;1259;101415;-78
2024/02/29 10:48:49;;;;;;;41.10;24.70;;;;;;;8.83;100.00;101263.73;105718;1258;100307;-78
2024/02/29 10:51:44;;;;;;;40.40;24.00;;;;;;;8.82;100.00;101259.51;105931;1260;99424;-78
2024/02/29 10:54:39;;;;;;;44.80;28.80;;;;;;;8.82;100.00;101252.83;106406;1254;97890;-83
2024/02/29 10:57:30;;;;;;;38.20;24.20;;;;;;;8.82;100.00;101249.79;106772;1255;98521;-91
2024/02/29 11:00:16;;;;;;;37.00;23.30;;;;;;;8.82;100.00;101250.48;106603;1258;101535;-79
2024/02/29 11:03:04;;;;;;;37.90;23.80;;;;;;;8.82;100.00;101246.15;105947;1254;99374;-79
2024/02/29 11:05:50;;;;;;;39.30;23.80;;;;;;;8.84;100.00;101239.75;105875;1267;99269;-79
2024/02/29 11:08:36;;;;;;;41.90;26.60;;;;;;;8.87;100.00;101235.73;105848;1258;97931;-79
2024/02/29 11:11:26;;;;;;;43.70;26.30;;;;;;;8.86;100.00;101231.67;105964;1255;97874;-80
2024/02/29 11:14:12;;;;;;;46.40;26.60;;;;;;;8.85;100.00;101227.30;106108;1259;102582;-80
2024/02/29 11:17:02;;;;;;;40.20;24.70;;;;;;;8.87;100.00;101224.70;105896;1259;99660;-78
2024/02/29 11:19:58;;;;;;;38.20;23.60;;;;;;;8.86;100.00;101221.33;106010;1267;98958;-78
2024/02/29 11:22:44;;;;;;;36.00;22.70;;;;;;;8.88;100.00;101217.25;105823;1254;97865;-79
2024/02/29 11:25:30;;;;;;;40.90;23.50;;;;;;;8.90;100.00;101213.80;105925;1259;97957;-79
2024/02/29 11:28:16;;;;;;;40.10;24.30;;;;;;;8.92;100.00;101211.27;105774;1255;101322;-80
2024/02/29 11:31:39;;;;;;;37.80;23.00;;;;;;;8.94;100.00;101208.06;105822;1254;100402;-78
2024/02/29 11:34:25;;;;;;;35.40;22.90;;;;;;;8.95;100.00;101201.52;106486;1260;99553;-79
2024/02/29 11:37:11;;;;;;;42.80;25.20;;;;;;;8.97;100.00;101198.41;105870;1258;97929;-79
2024/02/29 11:40:04;;;;;;;54.40;29.50;;;;;;;8.99;100.00;101197.70;105869;1258;98040;-78
2024/02/29 11:42:57;;;;;;;38.40;24.40;;;;;;;9.00;100.00;101195.99;105906;1257;101350;-82
2024/02/29 11:45:42;;;;;;;42.50;25.00;;;;;;;9.00;100.00;101189.92;106190;1254;99063;-78
2024/02/29 11:48:33;;;;;;;44.20;24.80;;;;;;;9.01;100.00;101181.63;106683;1260;99662;-86
2024/02/29 11:51:23;;;;;;;43.20;25.80;;;;;;;9.03;100.00;101171.83;106270;1258;97936;-81
2024/02/29 11:54:13;;;;;;;39.40;23.90;;;;;;;9.05;100.00;101172.44;106454;1255;98110;-81
2024/02/29 11:56:59;;;;;;;41.30;24.40;;;;;;;9.07;100.00;101174.08;106554;1259;101365;-81
2024/02/29 11:59:47;;;;;;;39.30;24.60;;;;;;;9.08;100.00;101172.14;106794;1254;100548;-78
2024/02/29 12:02:35;;;;;;;45.60;27.10;;;;;;;9.09;100.00;101169.30;106293;1258;98927;-85
2024/02/29 12:05:21;;;;;;;40.70;24.30;;;;;;;9.10;100.00;101163.89;106295;1254;97948;-78
2024/02/29 12:08:06;;;;;;;43.30;25.80;;;;;;;9.12;100.00;101162.86;105575;1257;98665;-77
2024/02/29 12:10:55;;;;;;;51.50;28.30;;;;;;;9.13;100.00;101158.09;105517;1270;101356;-77
2024/02/29 12:13:42;;;;;;;50.30;27.70;;;;;;;9.14;100.00;101157.89;106050;1258;107312;-90
2024/02/29 12:16:29;;;;;;;45.40;26.30;;;;;;;9.15;100.00;101154.82;106761;1254;98578;-89
2024/02/29 12:19:16;;;;;;;46.20;25.90;;;;;;;9.15;100.00;101148.54;106525;1254;98840;-79
2024/02/29 12:22:11;;;;;;;54.90;27.60;;;;;;;9.16;100.00;101147.44;106022;1254;97944;-79
2024/02/29 12:24:57;;;;;;;56.60;28.20;;;;;;;9.17;100.00;101143.39;106654;1257;101357;-80